Time;durP1;ratioP1;P1;durP2;ratioP2;P2;SDS_P1;SDS_P2;PMS_P1;PMS_P2;Temp;Humidity;BMP_temperature;BMP_pressure;BME280_temperature;BME280_humidity;BME280_pressure;Samples;Min_cycle;Max_cycle;Signal;HPM_P1;HPM_P2
2023/05/21 00:00:35;;;;;;;22.77;10.60;;;13.40;99.90;;;;;;5004764;28;20184;-61
2023/05/21 00:03:01;;;;;;;15.63;9.53;;;13.40;99.90;;;;;;5005144;28;20940;-62
2023/05/21 00:05:27;;;;;;;13.63;9.43;;;13.40;99.90;;;;;;5006154;28;20200;-62
2023/05/21 00:07:53;;;;;;;17.70;11.10;;;13.30;99.90;;;;;;5007313;28;20287;-61
2023/05/21 00:10:19;;;;;;;17.20;11.20;;;13.30;99.90;;;;;;5002647;28;20695;-61
2023/05/21 00:12:45;;;;;;;19.47;12.50;;;13.30;99.90;;;;;;5009504;28;20482;-61
2023/05/21 00:15:11;;;;;;;15.70;10.77;;;13.30;99.90;;;;;;5007268;28;20527;-61
2023/05/21 00:17:37;;;;;;;15.33;10.17;;;13.30;99.90;;;;;;5006596;28;20188;-61
2023/05/21 00:20:08;;;;;;;17.20;9.97;;;13.20;99.90;;;;;;5003884;28;20489;-61
2023/05/21 00:22:35;;;;;;;10.63;9.00;;;13.20;99.90;;;;;;5000294;28;20965;-61
2023/05/21 00:25:01;;;;;;;18.77;10.07;;;13.20;99.90;;;;;;5007015;28;20562;-61
2023/05/21 00:27:26;;;;;;;15.87;10.60;;;13.20;99.90;;;;;;5006927;28;20967;-62
2023/05/21 00:29:52;;;;;;;16.00;10.13;;;13.20;99.90;;;;;;5009444;28;20449;-62
2023/05/21 00:32:17;;;;;;;13.63;9.63;;;13.10;99.90;;;;;;5001626;28;20201;-61
2023/05/21 00:34:44;;;;;;;18.63;10.33;;;13.10;99.90;;;;;;5006191;28;20191;-61
2023/05/21 00:37:09;;;;;;;16.03;10.73;;;13.10;99.90;;;;;;5008583;28;20677;-62
2023/05/21 00:39:35;;;;;;;14.87;10.53;;;13.10;99.90;;;;;;5005161;28;20444;-61
2023/05/21 00:42:03;;;;;;;13.60;10.70;;;13.10;99.90;;;;;;5006949;28;20220;-62
2023/05/21 00:44:32;;;;;;;16.27;10.80;;;13.10;99.90;;;;;;5005646;28;22011;-62
2023/05/21 00:47:00;;;;;;;15.27;10.90;;;13.10;99.90;;;;;;5001935;28;20458;-61
2023/05/21 00:49:27;;;;;;;13.73;10.60;;;13.10;99.90;;;;;;5005801;28;20514;-61
2023/05/21 00:51:53;;;;;;;17.40;11.37;;;13.00;99.90;;;;;;5006484;28;20514;-61
2023/05/21 00:54:19;;;;;;;16.57;11.27;;;13.00;99.90;;;;;;5005728;28;20443;-61
2023/05/21 00:56:46;;;;;;;16.60;11.00;;;13.00;99.90;;;;;;5005721;28;20435;-61
2023/05/21 00:59:12;;;;;;;15.23;10.40;;;13.00;99.90;;;;;;5007177;28;21099;-62
2023/05/21 01:01:38;;;;;;;16.00;10.37;;;13.00;99.90;;;;;;5005354;28;20854;-60
2023/05/21 01:04:04;;;;;;;14.53;10.80;;;12.90;99.90;;;;;;5005078;28;20446;-61
2023/05/21 01:06:33;;;;;;;18.37;12.57;;;12.90;99.90;;;;;;4998841;28;20258;-61
2023/05/21 01:09:00;;;;;;;27.90;13.73;;;12.90;99.90;;;;;;5002378;28;20704;-59
2023/05/21 01:11:40;;;;;;;20.80;13.60;;;12.90;99.90;;;;;;5007847;28;20881;-61
2023/05/21 01:14:09;;;;;;;16.87;12.30;;;12.80;99.90;;;;;;5001924;28;20431;-61
2023/05/21 01:16:36;;;;;;;20.27;12.70;;;12.80;99.90;;;;;;5002756;28;20432;-61
2023/05/21 01:19:04;;;;;;;17.60;11.90;;;12.80;99.90;;;;;;4996534;28;20439;-61
2023/05/21 01:21:29;;;;;;;18.90;12.57;;;12.80;99.90;;;;;;4998033;28;20491;-61
2023/05/21 01:23:55;;;;;;;19.60;13.47;;;12.80;99.90;;;;;;5002809;28;20455;-61
2023/05/21 01:26:21;;;;;;;20.07;12.93;;;12.80;99.90;;;;;;4998786;28;20694;-61
2023/05/21 01:28:46;;;;;;;17.40;12.10;;;12.70;99.90;;;;;;5007529;28;20180;-61
2023/05/21 01:31:54;;;;;;;18.57;13.30;;;12.70;99.90;;;;;;5007111;28;20196;-61
2023/05/21 01:34:24;;;;;;;17.50;11.90;;;12.70;99.90;;;;;;5000773;28;20568;-62
2023/05/21 01:36:58;;;;;;;20.60;12.50;;;12.70;99.90;;;;;;5001696;28;20465;-61
2023/05/21 01:39:36;;;;;;;18.43;12.60;;;12.70;99.90;;;;;;5001822;28;22627;-62
2023/05/21 01:42:07;;;;;;;15.17;12.13;;;12.70;99.90;;;;;;5001314;28;20950;-61
2023/05/21 01:44:33;;;;;;;22.00;13.43;;;12.70;99.90;;;;;;5005311;28;20939;-62
2023/05/21 01:46:59;;;;;;;16.10;12.63;;;12.70;99.90;;;;;;5003593;28;20431;-61
2023/05/21 01:49:25;;;;;;;16.40;12.10;;;12.70;99.90;;;;;;5005866;28;20529;-61
2023/05/21 01:51:51;;;;;;;15.57;11.60;;;12.70;99.90;;;;;;5006254;28;20200;-61
2023/05/21 01:54:17;;;;;;;17.20;12.97;;;12.70;99.90;;;;;;5004701;28;20435;-61
2023/05/21 01:56:42;;;;;;;17.70;12.33;;;12.70;99.90;;;;;;5004471;28;20470;-60
2023/05/21 01:59:08;;;;;;;18.80;12.00;;;12.70;99.90;;;;;;5000639;28;20181;-62
2023/05/21 02:01:34;;;;;;;17.70;11.53;;;12.70;99.90;;;;;;5006113;28;20204;-61
2023/05/21 02:04:00;;;;;;;19.03;13.20;;;12.60;99.90;;;;;;5003560;28;20439;-62
2023/05/21 02:06:26;;;;;;;18.20;12.73;;;12.60;99.90;;;;;;5005212;28;20200;-62
2023/05/21 02:08:51;;;;;;;15.43;11.70;;;12.60;99.90;;;;;;5001487;28;20227;-61
2023/05/21 02:11:17;;;;;;;17.73;11.80;;;12.60;99.90;;;;;;4997970;28;20286;-60
2023/05/21 02:13:44;;;;;;;18.03;12.40;;;12.60;99.90;;;;;;5002084;28;20191;-61
2023/05/21 02:16:13;;;;;;;16.33;12.20;;;12.50;99.90;;;;;;5006287;28;20186;-61
2023/05/21 02:18:42;;;;;;;15.63;11.90;;;12.50;99.90;;;;;;5010925;28;20801;-61
2023/05/21 02:21:08;;;;;;;17.00;11.97;;;12.50;99.90;;;;;;4999684;28;21179;-61
2023/05/21 02:23:34;;;;;;;16.30;11.40;;;12.40;99.90;;;;;;5005601;28;20450;-61
2023/05/21 02:26:00;;;;;;;16.00;11.10;;;12.40;99.90;;;;;;5005853;28;20451;-61
2023/05/21 02:28:26;;;;;;;16.30;10.77;;;12.40;99.90;;;;;;5001946;28;20526;-61
2023/05/21 02:30:51;;;;;;;15.50;11.10;;;12.40;99.90;;;;;;5007422;28;20215;-61
2023/05/21 02:33:19;;;;;;;15.13;10.87;;;12.30;99.90;;;;;;5005779;28;20561;-62
2023/05/21 02:35:44;;;;;;;14.97;10.70;;;12.30;99.90;;;;;;5007981;28;20172;-61
2023/05/21 02:38:12;;;;;;;15.20;11.07;;;12.30;99.90;;;;;;5007503;28;20447;-64
2023/05/21 02:40:38;;;;;;;19.87;11.87;;;12.30;99.90;;;;;;5006062;28;20688;-61
2023/05/21 02:43:03;;;;;;;15.93;11.10;;;12.30;99.90;;;;;;5001742;28;20439;-61
2023/05/21 02:45:29;;;;;;;17.33;12.00;;;12.30;99.90;;;;;;5009332;28;20259;-61
2023/05/21 02:47:55;;;;;;;15.93;11.27;;;12.30;99.90;;;;;;5007326;28;20195;-61
2023/05/21 02:50:21;;;;;;;16.60;12.13;;;12.20;99.90;;;;;;5003751;28;20180;-61
2023/05/21 02:52:47;;;;;;;20.63;12.67;;;12.20;99.90;;;;;;5002820;28;20579;-61
2023/05/21 02:55:13;;;;;;;15.33;11.50;;;12.20;99.90;;;;;;5004056;28;20966;-61
2023/05/21 02:57:38;;;;;;;15.90;11.23;;;12.20;99.90;;;;;;5010705;28;20427;-62
2023/05/21 03:00:05;;;;;;;18.70;11.10;;;12.20;99.90;;;;;;5005964;28;20232;-61
2023/05/21 03:02:31;;;;;;;16.47;11.60;;;12.10;99.90;;;;;;5005361;28;20251;-61
2023/05/21 03:04:57;;;;;;;17.97;12.00;;;12.10;99.90;;;;;;5005906;28;20541;-61
2023/05/21 03:07:23;;;;;;;19.13;12.23;;;12.10;99.90;;;;;;5005140;28;20585;-61
2023/05/21 03:09:49;;;;;;;14.87;11.07;;;12.10;99.90;;;;;;5007702;28;21296;-61
2023/05/21 03:12:14;;;;;;;16.07;12.00;;;12.10;99.90;;;;;;5007640;28;20220;-61
2023/05/21 03:14:45;;;;;;;15.00;11.50;;;12.00;99.90;;;;;;5003676;28;20213;-61
2023/05/21 03:17:12;;;;;;;19.27;12.43;;;12.00;99.90;;;;;;5006413;28;20537;-61
2023/05/21 03:19:42;;;;;;;18.40;10.80;;;12.00;99.90;;;;;;5002546;28;20458;-61
2023/05/21 03:22:08;;;;;;;14.63;10.90;;;11.90;99.90;;;;;;5010460;28;20455;-61
2023/05/21 03:24:34;;;;;;;19.73;12.13;;;11.90;99.90;;;;;;4997732;28;20427;-61
2023/05/21 03:27:00;;;;;;;14.80;10.80;;;11.90;99.90;;;;;;5005091;28;20431;-62
2023/05/21 03:29:26;;;;;;;18.23;11.47;;;11.80;99.90;;;;;;5007762;28;20187;-61
2023/05/21 03:31:55;;;;;;;13.47;11.83;;;11.90;99.90;;;;;;5006424;28;20448;-61
2023/05/21 03:34:21;;;;;;;17.47;11.43;;;11.80;99.90;;;;;;5004841;28;20777;-61
2023/05/21 03:36:47;;;;;;;17.83;12.07;;;11.80;99.90;;;;;;5001000;28;20441;-61
2023/05/21 03:39:12;;;;;;;20.73;12.30;;;11.80;99.90;;;;;;5005986;28;20672;-61
2023/05/21 03:41:38;;;;;;;16.57;11.60;;;11.80;99.90;;;;;;5008019;28;20498;-60
2023/05/21 03:44:04;;;;;;;15.13;12.10;;;11.80;99.90;;;;;;5009297;28;20182;-61
2023/05/21 03:46:29;;;;;;;14.80;11.10;;;11.70;99.90;;;;;;5007372;28;20697;-61
2023/05/21 03:48:57;;;;;;;18.23;12.43;;;11.70;99.90;;;;;;5005576;28;20181;-61
2023/05/21 03:51:23;;;;;;;16.90;11.60;;;11.70;99.90;;;;;;5008522;28;20200;-61
2023/05/21 03:53:50;;;;;;;14.33;11.30;;;11.70;99.90;;;;;;5000419;28;20518;-62
2023/05/21 03:56:16;;;;;;;16.10;11.50;;;11.70;99.90;;;;;;5007549;28;20431;-61
2023/05/21 03:58:42;;;;;;;15.57;11.03;;;11.70;99.90;;;;;;5007334;28;20435;-60
2023/05/21 04:01:08;;;;;;;16.47;11.60;;;11.60;99.90;;;;;;5009235;28;20461;-61
2023/05/21 04:03:34;;;;;;;16.23;11.57;;;11.60;99.90;;;;;;5002488;28;20272;-61
2023/05/21 04:06:03;;;;;;;15.47;10.60;;;11.60;99.90;;;;;;5007585;28;20208;-61
2023/05/21 04:08:29;;;;;;;15.40;12.13;;;11.60;99.90;;;;;;5012896;28;20524;-61
2023/05/21 04:10:55;;;;;;;17.20;11.37;;;11.60;99.90;;;;;;4999907;28;20459;-62
2023/05/21 04:13:21;;;;;;;15.37;11.17;;;11.60;99.90;;;;;;4999750;28;20420;-61
2023/05/21 04:15:47;;;;;;;17.17;11.87;;;11.60;99.90;;;;;;4996030;28;20449;-61
2023/05/21 04:18:15;;;;;;;18.43;11.10;;;11.60;99.90;;;;;;5003900;28;20192;-61
2023/05/21 04:20:41;;;;;;;15.80;11.43;;;11.60;99.90;;;;;;5003830;28;21001;-61
2023/05/21 04:23:07;;;;;;;16.20;10.60;;;11.60;99.90;;;;;;5138970;22;20489;-60
2023/05/21 04:25:32;;;;;;;15.47;11.70;;;11.60;99.90;;;;;;5045290;28;20214;-57
2023/05/21 04:27:59;;;;;;;16.60;11.83;;;11.60;99.90;;;;;;5046667;28;20428;-55
2023/05/21 04:30:24;;;;;;;17.07;11.20;;;11.60;99.90;;;;;;5043730;28;20205;-57
2023/05/21 04:32:51;;;;;;;18.47;10.93;;;11.60;99.90;;;;;;5027415;28;20482;-58
2023/05/21 04:35:17;;;;;;;18.93;12.77;;;11.60;99.90;;;;;;5022429;28;20278;-60
2023/05/21 04:37:44;;;;;;;21.20;11.67;;;11.70;99.90;;;;;;5019968;28;20548;-57
2023/05/21 04:40:17;;;;;;;15.50;11.10;;;11.70;99.90;;;;;;5022552;28;20599;-60
2023/05/21 04:42:49;;;;;;;17.00;10.63;;;11.70;99.90;;;;;;5026393;28;20461;-58
2023/05/21 04:45:16;;;;;;;17.43;11.20;;;11.70;99.90;;;;;;5025778;28;20457;-58
2023/05/21 04:47:43;;;;;;;15.00;10.80;;;11.70;99.90;;;;;;5026236;28;21187;-58
2023/05/21 04:50:11;;;;;;;15.20;11.00;;;11.70;99.90;;;;;;5019612;28;20476;-60
2023/05/21 04:52:39;;;;;;;17.97;12.27;;;11.70;99.90;;;;;;5025989;28;20422;-59
2023/05/21 04:55:06;;;;;;;16.60;11.47;;;11.70;99.90;;;;;;5024545;28;20434;-57
2023/05/21 04:57:31;;;;;;;17.03;11.53;;;11.70;99.90;;;;;;5021456;28;20438;-58
2023/05/21 04:59:57;;;;;;;19.50;11.70;;;11.80;99.90;;;;;;5023416;28;20449;-61
2023/05/21 05:02:22;;;;;;;16.07;11.83;;;11.80;99.90;;;;;;5026532;28;20652;-57
2023/05/21 05:04:48;;;;;;;18.07;11.43;;;11.80;99.90;;;;;;5023499;28;20382;-58
2023/05/21 05:07:14;;;;;;;20.07;12.37;;;11.90;99.90;;;;;;5027609;28;20190;-59
2023/05/21 05:09:40;;;;;;;19.27;11.93;;;11.90;99.90;;;;;;5025323;28;20186;-58
2023/05/21 05:12:05;;;;;;;14.63;11.50;;;12.00;99.90;;;;;;5024164;28;20434;-60
2023/05/21 05:14:31;;;;;;;15.33;11.23;;;12.00;99.90;;;;;;5021710;28;20204;-59
2023/05/21 05:16:59;;;;;;;25.13;11.87;;;12.00;99.90;;;;;;5024552;28;20565;-58
2023/05/21 05:19:25;;;;;;;18.63;12.63;;;12.10;99.90;;;;;;5024991;28;20188;-57
2023/05/21 05:21:51;;;;;;;18.80;12.70;;;12.10;99.90;;;;;;5025956;28;20426;-56
2023/05/21 05:24:16;;;;;;;15.27;11.53;;;12.20;99.90;;;;;;5017839;28;20563;-57
2023/05/21 05:26:42;;;;;;;16.40;12.00;;;12.20;99.90;;;;;;5027377;28;20299;-57
2023/05/21 05:29:07;;;;;;;19.40;11.83;;;12.30;99.90;;;;;;5026911;28;20242;-65
2023/05/21 05:31:33;;;;;;;25.00;16.43;;;12.30;99.90;;;;;;5021763;28;20298;-57
2023/05/21 05:33:59;;;;;;;17.23;12.73;;;12.30;99.90;;;;;;5019060;28;20199;-57
2023/05/21 05:36:24;;;;;;;17.07;11.93;;;12.30;99.90;;;;;;5022947;28;20815;-58
2023/05/21 05:38:50;;;;;;;14.57;11.57;;;12.40;99.90;;;;;;5026476;28;20198;-59
2023/05/21 05:41:16;;;;;;;18.60;12.63;;;12.40;99.90;;;;;;5023706;28;20779;-57
2023/05/21 05:43:42;;;;;;;16.53;12.07;;;12.50;99.90;;;;;;5027098;28;20253;-58
2023/05/21 05:46:08;;;;;;;19.90;12.77;;;12.50;99.90;;;;;;5022310;28;20571;-56
2023/05/21 05:48:34;;;;;;;15.17;11.70;;;12.50;99.90;;;;;;5026883;28;20180;-57
2023/05/21 05:51:00;;;;;;;22.00;12.10;;;12.60;99.90;;;;;;5024449;28;20465;-58
2023/05/21 05:53:25;;;;;;;23.00;12.60;;;12.60;99.90;;;;;;5026658;28;20661;-58
2023/05/21 05:55:51;;;;;;;16.70;12.43;;;12.60;99.90;;;;;;5024859;28;20461;-59
2023/05/21 05:58:17;;;;;;;20.00;13.10;;;12.70;99.90;;;;;;5026922;28;20179;-60
2023/05/21 06:00:43;;;;;;;19.70;12.67;;;12.70;99.90;;;;;;5024035;28;20187;-58
2023/05/21 06:03:08;;;;;;;18.90;13.87;;;12.80;99.90;;;;;;5024148;28;20850;-57
2023/05/21 06:05:34;;;;;;;16.23;12.23;;;12.80;99.90;;;;;;5027679;28;20676;-59
2023/05/21 06:08:00;;;;;;;18.73;13.00;;;12.90;99.90;;;;;;5028808;28;20204;-58
2023/05/21 06:10:26;;;;;;;16.40;12.43;;;12.90;99.90;;;;;;5029579;28;20179;-59
2023/05/21 06:12:51;;;;;;;16.97;13.00;;;13.00;99.90;;;;;;5029152;28;20204;-57
2023/05/21 06:15:18;;;;;;;17.00;12.50;;;13.00;99.90;;;;;;5030972;28;20657;-58
2023/05/21 06:17:44;;;;;;;15.50;12.30;;;13.10;99.90;;;;;;5027506;28;20184;-59
2023/05/21 06:20:10;;;;;;;18.50;13.00;;;13.10;99.90;;;;;;5025244;28;20904;-59
2023/05/21 06:22:36;;;;;;;19.47;12.20;;;13.20;99.90;;;;;;5029312;28;20470;-59
2023/05/21 06:25:02;;;;;;;18.60;12.00;;;13.30;99.90;;;;;;5029472;28;20462;-57
2023/05/21 06:27:27;;;;;;;19.00;13.10;;;13.30;99.90;;;;;;5028687;28;20202;-58
2023/05/21 06:29:53;;;;;;;17.40;13.13;;;13.40;99.90;;;;;;5029680;28;20180;-58
2023/05/21 06:32:20;;;;;;;17.00;12.60;;;13.40;99.90;;;;;;5026361;28;20183;-59
2023/05/21 06:34:45;;;;;;;17.63;13.30;;;13.50;99.90;;;;;;5030603;28;20188;-58
2023/05/21 06:37:11;;;;;;;19.90;13.03;;;13.60;99.90;;;;;;5024285;28;20934;-59
2023/05/21 06:39:37;;;;;;;20.93;13.40;;;13.60;99.90;;;;;;5028576;28;20263;-58
2023/05/21 06:42:02;;;;;;;18.40;13.00;;;13.70;99.90;;;;;;5024781;28;20215;-57
2023/05/21 06:44:28;;;;;;;19.57;13.90;;;13.80;99.90;;;;;;5026393;28;20574;-58
2023/05/21 06:46:54;;;;;;;17.90;13.93;;;13.80;99.90;;;;;;5026197;28;20204;-58
2023/05/21 06:49:19;;;;;;;20.47;14.50;;;13.80;99.90;;;;;;5028223;28;20176;-58
2023/05/21 06:51:45;;;;;;;19.17;13.97;;;13.90;99.90;;;;;;5028289;28;20180;-62
2023/05/21 06:54:11;;;;;;;22.13;15.10;;;13.90;99.90;;;;;;5023364;28;20287;-61
2023/05/21 06:56:36;;;;;;;22.53;14.50;;;14.00;99.90;;;;;;5026966;28;20184;-59
2023/05/21 06:59:02;;;;;;;22.17;14.87;;;14.10;99.90;;;;;;5025109;28;20184;-59
2023/05/21 07:01:28;;;;;;;22.07;14.63;;;14.20;99.90;;;;;;5019675;28;20655;-61
2023/05/21 07:03:53;;;;;;;21.47;15.63;;;14.30;99.90;;;;;;5024478;28;20648;-58
2023/05/21 07:06:19;;;;;;;22.83;15.40;;;14.50;99.90;;;;;;5023481;28;20199;-58
2023/05/21 07:08:44;;;;;;;65.07;16.77;;;14.60;99.90;;;;;;5028450;28;20267;-56
2023/05/21 07:11:10;;;;;;;22.97;15.33;;;14.80;99.90;;;;;;5025681;28;20186;-60
2023/05/21 07:13:36;;;;;;;21.13;16.27;;;15.00;99.90;;;;;;5027584;28;20314;-59
2023/05/21 07:16:01;;;;;;;26.87;16.30;;;15.10;99.90;;;;;;5026772;28;20184;-60
2023/05/21 07:18:27;;;;;;;27.50;17.33;;;15.20;99.90;;;;;;5018355;28;20431;-60
2023/05/21 07:20:52;;;;;;;25.00;17.90;;;15.20;99.90;;;;;;5023669;28;20187;-58
2023/05/21 07:23:20;;;;;;;29.30;16.67;;;15.30;99.90;;;;;;5023091;28;20270;-60
2023/05/21 07:25:46;;;;;;;25.03;17.40;;;15.40;99.90;;;;;;5019627;28;20195;-59
2023/05/21 07:28:11;;;;;;;29.53;18.57;;;15.40;99.90;;;;;;5015364;28;22186;-58
2023/05/21 07:30:37;;;;;;;25.30;16.40;;;15.50;99.90;;;;;;5020784;28;20498;-59
2023/05/21 07:33:02;;;;;;;20.93;15.47;;;15.50;99.90;;;;;;5027458;28;20195;-61
2023/05/21 07:35:28;;;;;;;25.20;16.53;;;15.60;99.90;;;;;;5028899;28;20229;-59
2023/05/21 07:37:53;;;;;;;28.93;17.50;;;15.60;99.90;;;;;;5022413;28;20187;-59
2023/05/21 07:40:19;;;;;;;25.50;16.83;;;15.60;99.90;;;;;;5027958;28;20556;-60
2023/05/21 07:42:45;;;;;;;21.83;16.30;;;15.70;99.90;;;;;;5027273;28;20242;-57
2023/05/21 07:45:10;;;;;;;26.03;18.00;;;15.80;99.90;;;;;;5024106;28;20198;-57
2023/05/21 07:47:36;;;;;;;22.27;15.93;;;15.80;99.90;;;;;;5018472;28;20556;-57
2023/05/21 07:50:02;;;;;;;25.17;16.93;;;15.80;99.90;;;;;;5016166;28;20230;-61
2023/05/21 07:52:27;;;;;;;27.80;17.67;;;15.80;99.90;;;;;;5021014;28;20579;-60
2023/05/21 07:54:53;;;;;;;23.77;16.77;;;15.90;99.90;;;;;;5022967;28;20201;-59
2023/05/21 07:57:18;;;;;;;24.70;16.43;;;15.90;99.90;;;;;;5024857;28;20327;-59
2023/05/21 07:59:44;;;;;;;26.93;17.37;;;16.00;99.90;;;;;;5022322;28;20251;-57
2023/05/21 08:02:10;;;;;;;25.13;16.53;;;16.10;99.90;;;;;;5018309;28;20190;-60
2023/05/21 08:04:37;;;;;;;25.43;16.60;;;16.20;99.90;;;;;;5024512;28;20199;-60
2023/05/21 08:07:02;;;;;;;20.60;15.27;;;16.30;99.90;;;;;;5016292;28;20188;-59
2023/05/21 08:09:28;;;;;;;22.90;15.60;;;16.40;99.90;;;;;;5018670;28;20505;-60
2023/05/21 08:11:54;;;;;;;25.10;17.70;;;16.60;99.90;;;;;;5015575;28;20188;-63
2023/05/21 08:14:19;;;;;;;25.27;16.80;;;16.80;99.90;;;;;;5026402;28;20219;-58
2023/05/21 08:16:45;;;;;;;29.03;17.90;;;16.90;99.90;;;;;;5027372;28;20562;-58
2023/05/21 08:19:11;;;;;;;23.00;16.47;;;17.00;99.90;;;;;;5014233;28;20851;-60
2023/05/21 08:21:36;;;;;;;23.13;16.97;;;17.10;99.90;;;;;;5026356;28;20639;-60
2023/05/21 08:24:02;;;;;;;25.60;16.70;;;17.20;99.90;;;;;;5026009;28;20208;-59
2023/05/21 08:26:28;;;;;;;26.07;15.90;;;17.30;99.90;;;;;;5026796;28;20794;-59
2023/05/21 08:28:54;;;;;;;22.60;16.10;;;17.50;99.90;;;;;;5017703;28;20168;-60
2023/05/21 08:31:20;;;;;;;24.70;16.70;;;17.60;99.90;;;;;;5014077;28;20200;-59
2023/05/21 08:33:53;;;;;;;21.73;16.40;;;17.80;99.90;;;;;;5025591;28;20199;-61
2023/05/21 08:36:18;;;;;;;27.70;17.13;;;17.80;99.90;;;;;;5019233;28;21350;-58
2023/05/21 08:38:44;;;;;;;24.30;17.03;;;17.90;99.90;;;;;;5013487;28;20465;-59
2023/05/21 08:41:11;;;;;;;25.63;18.13;;;18.10;99.70;;;;;;5025231;28;20180;-61
2023/05/21 08:43:40;;;;;;;26.53;18.20;;;18.20;98.60;;;;;;5017315;28;20202;-59
2023/05/21 08:46:08;;;;;;;23.83;16.60;;;18.20;99.90;;;;;;5019303;28;20493;-61
2023/05/21 08:48:35;;;;;;;23.00;16.70;;;18.40;99.20;;;;;;5006985;28;20458;-60
2023/05/21 08:51:01;;;;;;;22.90;17.07;;;18.50;93.70;;;;;;5005272;28;20435;-58
2023/05/21 08:53:26;;;;;;;19.50;15.30;;;18.60;95.70;;;;;;5017930;28;20446;-59
2023/05/21 08:55:54;;;;;;;21.60;14.97;;;18.70;96.60;;;;;;5024505;28;20203;-59
2023/05/21 08:58:21;;;;;;;19.10;12.53;;;18.90;96.00;;;;;;5023328;28;20183;-59
2023/05/21 09:00:46;;;;;;;14.60;10.90;;;19.10;92.30;;;;;;5026294;28;20430;-61
2023/05/21 09:03:14;;;;;;;14.40;10.90;;;19.20;87.90;;;;;;5025243;28;20860;-58
2023/05/21 09:05:41;;;;;;;9.93;8.17;;;19.30;84.50;;;;;;5026155;28;20192;-61
2023/05/21 09:08:46;;;;;;;11.20;8.10;;;19.50;80.60;;;;;;5027774;28;20441;-58
2023/05/21 09:11:13;;;;;;;10.07;7.10;;;19.60;71.40;;;;;;4961131;28;20432;-61
2023/05/21 09:13:40;;;;;;;8.07;5.90;;;19.60;69.60;;;;;;5013010;28;21105;-61
2023/05/21 09:16:06;;;;;;;9.03;6.90;;;19.70;67.10;;;;;;5020958;28;20426;-58
2023/05/21 09:18:32;;;;;;;15.20;8.23;;;19.80;65.40;;;;;;5017364;28;20418;-57
2023/05/21 09:21:18;;;;;;;11.77;8.50;;;20.00;64.70;;;;;;5020702;28;20453;-60
2023/05/21 09:23:44;;;;;;;11.43;8.83;;;20.10;65.60;;;;;;5017183;28;20223;-60
2023/05/21 09:26:11;;;;;;;14.20;8.70;;;20.40;67.10;;;;;;5018464;28;20536;-59
2023/05/21 09:28:37;;;;;;;14.67;10.30;;;20.50;66.90;;;;;;5023006;28;20267;-59
2023/05/21 09:31:02;;;;;;;14.97;10.97;;;20.70;66.50;;;;;;5028322;28;20493;-59
2023/05/21 09:33:28;;;;;;;13.67;9.80;;;20.80;67.00;;;;;;5027169;28;20184;-58
2023/05/21 09:35:54;;;;;;;12.20;8.57;;;20.80;67.90;;;;;;5021070;28;20399;-57
2023/05/21 09:38:24;;;;;;;10.70;8.53;;;20.80;66.60;;;;;;5027292;28;20237;-56
2023/05/21 09:40:50;;;;;;;12.13;9.43;;;20.90;67.30;;;;;;5024389;28;21003;-59
2023/05/21 09:43:16;;;;;;;10.67;8.80;;;20.90;67.40;;;;;;5026418;28;20494;-60
2023/05/21 09:45:55;;;;;;;17.20;8.60;;;21.00;66.60;;;;;;5023370;28;20200;-59
2023/05/21 09:48:42;;;;;;;16.10;9.37;;;21.10;66.00;;;;;;5022514;28;20557;-55
2023/05/21 09:51:15;;;;;;;8.67;7.43;;;21.30;65.70;;;;;;5024131;28;20426;-59
2023/05/21 09:53:47;;;;;;;9.60;7.03;;;21.40;64.20;;;;;;5008822;28;20459;-62
2023/05/21 09:56:12;;;;;;;8.93;6.30;;;21.50;63.70;;;;;;5019202;28;20966;-60
2023/05/21 09:58:38;;;;;;;7.20;5.40;;;21.70;61.70;;;;;;5017603;28;20434;-59
2023/05/21 10:01:05;;;;;;;13.07;7.03;;;21.70;60.60;;;;;;5015484;28;20176;-58
2023/05/21 10:03:32;;;;;;;8.07;7.27;;;21.80;59.60;;;;;;5015074;28;20230;-60
2023/05/21 10:05:59;;;;;;;7.50;6.13;;;21.80;59.70;;;;;;5021175;28;20951;-58
2023/05/21 10:08:27;;;;;;;8.70;7.33;;;21.90;60.10;;;;;;5022483;28;20828;-59
2023/05/21 10:10:53;;;;;;;10.20;7.40;;;21.90;59.40;;;;;;5020437;28;20438;-61
2023/05/21 10:13:22;;;;;;;8.53;7.63;;;22.00;60.50;;;;;;5020915;28;20456;-59
2023/05/21 10:15:55;;;;;;;8.83;7.10;;;22.10;60.70;;;;;;5021193;28;20249;-59
2023/05/21 10:18:22;;;;;;;13.47;7.43;;;22.30;60.60;;;;;;5016452;28;20504;-58
2023/05/21 10:20:49;;;;;;;11.20;8.37;;;22.30;59.80;;;;;;5021852;28;20513;-57
2023/05/21 10:23:15;;;;;;;11.50;7.17;;;22.50;60.90;;;;;;5024344;28;20500;-58
2023/05/21 10:25:41;;;;;;;12.60;6.80;;;22.70;60.80;;;;;;5019735;28;20454;-59
2023/05/21 10:28:06;;;;;;;10.57;6.70;;;22.80;60.30;;;;;;5022131;28;20488;-58
2023/05/21 10:30:34;;;;;;;7.03;5.93;;;23.00;59.20;;;;;;5040660;22;20218;-61
2023/05/21 10:33:01;;;;;;;7.60;6.70;;;23.10;59.40;;;;;;5039468;28;20222;-64
2023/05/21 10:35:28;;;;;;;9.13;6.47;;;23.20;58.40;;;;;;5041103;28;20426;-60
2023/05/21 10:37:56;;;;;;;8.73;6.93;;;23.30;57.40;;;;;;5035409;28;20425;-62
2023/05/21 10:40:21;;;;;;;6.50;5.77;;;23.40;58.50;;;;;;5035609;28;21059;-61
2023/05/21 10:43:31;;;;;;;6.90;5.93;;;23.50;58.10;;;;;;5036765;28;20437;-61
2023/05/21 10:46:25;;;;;;;7.90;6.60;;;23.50;57.40;;;;;;5037370;28;20214;-62
2023/05/21 10:49:05;;;;;;;7.37;5.73;;;23.50;56.80;;;;;;5034145;28;20460;-62
2023/05/21 10:51:49;;;;;;;10.00;6.90;;;23.50;55.30;;;;;;5039746;28;20450;-63
2023/05/21 10:54:20;;;;;;;9.97;6.37;;;23.50;56.80;;;;;;5039194;28;20502;-63
2023/05/21 10:57:10;;;;;;;7.10;6.00;;;23.60;57.40;;;;;;5040807;28;20438;-63
2023/05/21 10:59:42;;;;;;;9.10;6.33;;;23.70;57.20;;;;;;5048514;28;20456;-63
2023/05/21 11:02:11;;;;;;;6.93;5.80;;;23.90;56.90;;;;;;5044573;28;20436;-63
2023/05/21 11:04:40;;;;;;;6.53;5.93;;;24.00;55.10;;;;;;5044547;28;20430;-63
2023/05/21 11:07:06;;;;;;;9.30;5.13;;;24.20;55.30;;;;;;5043168;28;20468;-61
2023/05/21 11:09:32;;;;;;;6.37;5.40;;;24.30;54.70;;;;;;5037153;28;20425;-61
2023/05/21 11:11:59;;;;;;;13.40;5.80;;;24.40;53.50;;;;;;5044122;28;20648;-63
2023/05/21 11:14:42;;;;;;;7.20;6.00;;;24.50;53.20;;;;;;5038320;28;21530;-60
2023/05/21 11:17:39;;;;;;;8.00;5.80;;;24.60;53.50;;;;;;5035921;28;20432;-60
2023/05/21 11:20:10;;;;;;;6.53;5.13;;;24.80;54.70;;;;;;5041172;28;20457;-61
2023/05/21 11:22:37;;;;;;;6.70;5.03;;;25.00;54.10;;;;;;5041040;28;20790;-61
2023/05/21 11:25:03;;;;;;;5.90;5.30;;;25.10;53.60;;;;;;5042120;28;20488;-61
2023/05/21 11:27:39;;;;;;;6.27;5.63;;;25.20;53.40;;;;;;5037214;28;20434;-61
2023/05/21 11:30:07;;;;;;;5.93;4.83;;;25.40;52.70;;;;;;5031298;28;21033;-60
2023/05/21 11:33:00;;;;;;;6.73;5.27;;;25.50;53.90;;;;;;5045565;28;20429;-61
2023/05/21 11:35:26;;;;;;;10.73;4.80;;;25.70;53.10;;;;;;5037475;28;20433;-63
2023/05/21 11:37:53;;;;;;;6.00;4.80;;;25.80;52.00;;;;;;5037491;28;20440;-62
2023/05/21 11:40:22;;;;;;;6.83;5.10;;;25.90;51.30;;;;;;5032439;28;20453;-62
2023/05/21 11:42:50;;;;;;;5.53;4.53;;;25.90;51.60;;;;;;5045987;28;20433;-62
2023/05/21 11:45:18;;;;;;;6.30;4.80;;;26.00;51.40;;;;;;5045229;28;20461;-62
2023/05/21 11:47:45;;;;;;;8.63;4.20;;;26.10;50.70;;;;;;5046007;28;20956;-63
2023/05/21 11:50:13;;;;;;;3.97;3.67;;;26.10;50.40;;;;;;5048773;28;20445;-62
2023/05/21 11:52:43;;;;;;;4.50;3.37;;;26.20;50.40;;;;;;5048813;28;20629;-62
2023/05/21 11:55:10;;;;;;;7.10;4.30;;;26.30;49.70;;;;;;5044472;28;20847;-63
2023/05/21 11:57:36;;;;;;;4.37;3.97;;;26.30;50.00;;;;;;5044803;28;20424;-62
2023/05/21 12:00:12;;;;;;;6.23;4.20;;;26.30;49.70;;;;;;5042853;28;20457;-62
2023/05/21 12:02:38;;;;;;;4.40;3.67;;;26.30;49.20;;;;;;5035563;28;21123;-62
2023/05/21 12:05:05;;;;;;;3.93;3.53;;;26.20;49.20;;;;;;5046062;28;20507;-61
2023/05/21 12:07:30;;;;;;;5.10;3.80;;;26.20;47.70;;;;;;5046888;28;20658;-62
2023/05/21 12:09:57;;;;;;;5.57;4.00;;;26.10;48.70;;;;;;5042571;28;20206;-62
2023/05/21 12:12:27;;;;;;;6.87;5.00;;;26.10;48.10;;;;;;5044112;28;20202;-62
2023/05/21 12:14:54;;;;;;;7.63;4.80;;;26.20;48.70;;;;;;5044097;28;20421;-62
2023/05/21 12:17:25;;;;;;;7.50;6.27;;;26.40;50.30;;;;;;5043485;28;20517;-62
2023/05/21 12:19:53;;;;;;;6.20;5.60;;;26.60;51.60;;;;;;5042410;28;20856;-62
2023/05/21 12:22:20;;;;;;;8.00;6.97;;;26.70;51.40;;;;;;5047612;28;20460;-62
2023/05/21 12:24:47;;;;;;;7.67;5.37;;;26.80;51.20;;;;;;5043182;28;20198;-62
2023/05/21 12:27:15;;;;;;;8.20;5.60;;;26.80;51.80;;;;;;5039528;28;20187;-62
2023/05/21 12:29:47;;;;;;;7.00;6.30;;;26.90;51.70;;;;;;5038205;28;20286;-63
2023/05/21 12:32:14;;;;;;;6.43;5.50;;;27.00;51.00;;;;;;5042507;28;20175;-62